createdAt,value
2018-06-09T00:02:02.906Z,98619.55
2018-06-09T00:04:32.536Z,98618.47
2018-06-09T00:07:02.158Z,98616.58
2018-06-09T00:09:31.712Z,98624.95
2018-06-09T00:12:01.031Z,98617.53
2018-06-09T00:14:30.830Z,98615.05
2018-06-09T00:17:00.391Z,98620.95
2018-06-09T00:19:30.743Z,98616.11
2018-06-09T00:22:00.504Z,98620.87
2018-06-09T00:24:30.161Z,98615.50
2018-06-09T00:27:00.046Z,98614.55
2018-06-09T00:29:30.081Z,98611.36
2018-06-09T00:32:00.275Z,98613.41
2018-06-09T00:34:30.019Z,98607.52
2018-06-09T00:36:59.345Z,98612.73
2018-06-09T00:39:29.066Z,98614.90
2018-06-09T00:41:58.489Z,98607.19
2018-06-09T00:44:28.160Z,98615.22
2018-06-09T00:46:57.525Z,98608.50
2018-06-09T00:49:27.229Z,98613.93
2018-06-09T00:51:56.562Z,98616.15
2018-06-09T00:54:25.934Z,98617.48
2018-06-09T00:56:55.261Z,98616.30
2018-06-09T00:59:24.642Z,98616.16
2018-06-09T01:01:54.396Z,98621.02
2018-06-09T01:04:23.734Z,98619.52
2018-06-09T01:06:53.403Z,98623.22
2018-06-09T01:09:23.142Z,98628.42
2018-06-09T01:11:52.725Z,98626.23
2018-06-09T01:14:23.083Z,98623.19
2018-06-09T01:16:53.139Z,98621.53
2018-06-09T01:19:22.495Z,98621.66
2018-06-09T01:21:52.493Z,98622.85
2018-06-09T01:24:22.770Z,98627.23
2018-06-09T01:26:52.432Z,98624.84
2018-06-09T01:29:22.253Z,98619.83
2018-06-09T01:31:52.658Z,98613.60
2018-06-09T01:34:21.975Z,98618.81
2018-06-09T01:36:51.367Z,98620.31
2018-06-09T01:39:20.719Z,98611.77
2018-06-09T01:41:50.641Z,98615.27
2018-06-09T01:44:21.210Z,98609.56
2018-06-09T01:46:50.576Z,98612.77
2018-06-09T01:49:20.365Z,98614.12
2018-06-09T01:51:49.869Z,98607.05
2018-06-09T01:54:19.575Z,98610.77
2018-06-09T01:56:48.928Z,98605.89
2018-06-09T01:59:18.605Z,98614.11
2018-06-09T02:01:47.934Z,98605.05
2018-06-09T02:04:18.755Z,98605.38
2018-06-09T02:06:48.161Z,98607.55
2018-06-09T02:09:17.731Z,98599.34
2018-06-09T02:11:47.351Z,98607.38
2018-06-09T02:14:16.684Z,98603.69
2018-06-09T02:16:46.363Z,98609.73
2018-06-09T02:19:16.612Z,98611.25
2018-06-09T02:21:45.982Z,98613.94
2018-06-09T02:24:15.285Z,98609.56
2018-06-09T02:26:45.276Z,98607.89
2018-06-09T02:29:15.000Z,98606.39
2018-06-09T02:31:44.727Z,98609.91
2018-06-09T02:34:14.046Z,98610.26
2018-06-09T02:36:43.417Z,98612.11
2018-06-09T02:39:13.116Z,98610.60
2018-06-09T02:41:42.996Z,98611.25
2018-06-09T02:44:13.198Z,98614.95
2018-06-09T02:46:42.565Z,98611.05
2018-06-09T02:49:11.861Z,98614.42
2018-06-09T02:51:41.222Z,98613.23
2018-06-09T02:54:11.522Z,98615.05
2018-06-09T02:56:41.265Z,98613.69
2018-06-09T02:59:10.565Z,98614.93
2018-06-09T03:01:40.245Z,98611.47
2018-06-09T03:04:09.553Z,98613.66
2018-06-09T03:06:39.727Z,98610.83
2018-06-09T03:09:09.382Z,98611.16
2018-06-09T03:11:38.733Z,98610.69
2018-06-09T03:14:08.129Z,98612.53
2018-06-09T03:16:37.526Z,98615.72
2018-06-09T03:19:06.829Z,98613.03
2018-06-09T03:21:36.173Z,98613.55
2018-06-09T03:24:05.508Z,98606.49
2018-06-09T03:26:35.231Z,98608.12
2018-06-09T03:29:05.417Z,98621.25
2018-06-09T03:31:35.050Z,98614.41
2018-06-09T03:34:05.249Z,98615.05
2018-06-09T03:36:34.580Z,98615.72
2018-06-09T03:39:05.232Z,98610.50
2018-06-09T03:41:34.603Z,98608.22
2018-06-09T03:44:03.934Z,98608.36
2018-06-09T03:46:33.512Z,98608.73
2018-06-09T03:49:05.058Z,98609.23
2018-06-09T03:51:34.491Z,98612.75
2018-06-09T03:54:03.849Z,98615.60
2018-06-09T03:56:33.890Z,98609.90
2018-06-09T03:59:03.210Z,98606.34
2018-06-09T04:01:32.543Z,98614.93
2018-06-09T04:04:02.127Z,98609.62
2018-06-09T04:06:31.794Z,98617.17
2018-06-09T04:09:01.560Z,98622.54
2018-06-09T04:11:31.687Z,98627.73
2018-06-09T04:14:01.314Z,98630.78
2018-06-09T04:16:31.045Z,98628.23
2018-06-09T04:19:00.377Z,98632.33
2018-06-09T04:21:29.710Z,98629.47
2018-06-09T04:24:00.138Z,98627.27
2018-06-09T04:26:29.839Z,98633.27
2018-06-09T04:28:59.144Z,98634.00
2018-06-09T04:31:28.769Z,98636.02
2018-06-09T04:33:58.117Z,98629.33
2018-06-09T04:36:27.424Z,98626.81
2018-06-09T04:38:57.009Z,98625.28
2018-06-09T04:41:26.698Z,98623.09
2018-06-09T04:43:56.478Z,98625.97
2018-06-09T04:46:25.821Z,98627.32
2018-06-09T04:48:55.409Z,98625.78
2018-06-09T04:51:24.750Z,98624.82
2018-06-09T04:53:54.084Z,98626.52
2018-06-09T04:56:23.527Z,98624.31
2018-06-09T04:58:53.697Z,98623.69
2018-06-09T05:01:23.029Z,98628.70
2018-06-09T05:03:52.714Z,98622.84
2018-06-09T05:06:22.376Z,98630.07
2018-06-09T05:08:51.702Z,98628.23
2018-06-09T05:11:21.061Z,98632.78
2018-06-09T05:13:50.863Z,98631.75
2018-06-09T05:16:20.610Z,98622.68
2018-06-09T05:18:50.159Z,98626.02
2018-06-09T05:21:19.496Z,98633.06
2018-06-09T05:23:48.840Z,98639.98
2018-06-09T05:26:18.220Z,98637.43
2018-06-09T05:28:47.500Z,98637.10
2018-06-09T05:31:17.140Z,98630.02
2018-06-09T05:33:46.492Z,98642.62
2018-06-09T05:36:16.217Z,98639.79
2018-06-09T05:38:46.258Z,98638.89
2018-06-09T05:41:15.592Z,98634.48
2018-06-09T05:43:44.955Z,98637.63
2018-06-09T05:46:14.256Z,98639.42
2018-06-09T05:48:44.071Z,98643.86
2018-06-09T05:51:13.384Z,98640.59
2018-06-09T05:53:42.756Z,98646.77
2018-06-09T05:56:12.179Z,98646.91
2018-06-09T05:58:41.752Z,98648.56
2018-06-09T06:01:11.072Z,98647.88
2018-06-09T06:03:40.767Z,98647.89
2018-06-09T06:06:10.201Z,98651.48
2018-06-09T06:08:39.870Z,98650.84
2018-06-09T06:11:09.201Z,98653.53
2018-06-09T06:13:38.543Z,98650.53
2018-06-09T06:16:07.880Z,98653.73
2018-06-09T06:18:37.242Z,98659.77
2018-06-09T06:21:06.844Z,98656.77
2018-06-09T06:23:36.785Z,98656.36
2018-06-09T06:26:06.498Z,98657.42
2018-06-09T06:28:35.852Z,98661.24
2018-06-09T06:31:06.139Z,98653.52
2018-06-09T06:33:35.477Z,98654.67
2018-06-09T06:36:04.916Z,98659.33
2018-06-09T06:38:34.247Z,98660.86
2018-06-09T06:41:03.539Z,98657.64
2018-06-09T06:43:33.694Z,98668.52
2018-06-09T06:46:03.084Z,98666.50
2018-06-09T06:48:32.926Z,98662.80
2018-06-09T06:51:02.875Z,98667.75
2018-06-09T06:53:32.529Z,98671.28
2018-06-09T06:56:02.073Z,98674.42
2018-06-09T06:58:31.857Z,98682.20
2018-06-09T07:01:01.490Z,98683.42
2018-06-09T07:03:30.864Z,98685.88
2018-06-09T07:06:00.552Z,98677.65
2018-06-09T07:08:29.885Z,98677.97
2018-06-09T07:10:59.634Z,98678.80
2018-06-09T07:13:29.014Z,98679.37
2018-06-09T07:15:58.664Z,98677.38
2018-06-09T07:18:28.246Z,98681.38
2018-06-09T07:20:57.579Z,98685.36
2018-06-09T07:23:26.919Z,98688.67
2018-06-09T07:25:56.965Z,98685.48
2018-06-09T07:28:26.297Z,98690.70
2018-06-09T07:30:55.628Z,98695.67
2018-06-09T07:33:25.006Z,98695.59
2018-06-09T07:35:54.313Z,98691.87
2018-06-09T07:38:25.373Z,98693.13
2018-06-09T07:40:54.776Z,98685.88
2018-06-09T07:43:24.150Z,98685.07
2018-06-09T07:45:53.524Z,98681.59
2018-06-09T07:48:22.876Z,98688.65
2018-06-09T07:50:52.337Z,98689.27
2018-06-09T07:53:21.692Z,98684.81
2018-06-09T07:55:51.023Z,98687.72
2018-06-09T07:58:20.398Z,98679.08
2018-06-09T08:00:49.997Z,98680.44
2018-06-09T08:03:19.381Z,98676.35
2018-06-09T08:05:49.096Z,98675.55
2018-06-09T08:08:18.924Z,98676.06
2018-06-09T08:10:48.565Z,98678.45
2018-06-09T08:13:17.923Z,98679.48
2018-06-09T08:15:47.953Z,98681.30
2018-06-09T08:18:17.341Z,98679.99
2018-06-09T08:20:46.698Z,98681.87
2018-06-09T08:23:16.481Z,98674.45
2018-06-09T08:25:45.821Z,98673.78
2018-06-09T08:28:15.553Z,98671.53
2018-06-09T08:30:44.875Z,98668.86
2018-06-09T08:33:15.550Z,98679.36
2018-06-09T08:35:44.857Z,98673.50
2018-06-09T08:38:14.232Z,98679.80
2018-06-09T08:40:43.553Z,98676.63
2018-06-09T08:43:12.954Z,98667.87
2018-06-09T08:45:42.727Z,98666.08
2018-06-09T08:48:12.076Z,98662.92
2018-06-09T08:50:41.810Z,98664.55
2018-06-09T08:53:13.752Z,98664.35
2018-06-09T08:55:43.228Z,98664.09
2018-06-09T08:58:12.604Z,98661.19
2018-06-09T09:00:41.921Z,98655.85
2018-06-09T09:03:11.612Z,98659.12
2018-06-09T09:05:41.050Z,98654.64
2018-06-09T09:08:10.413Z,98649.22
2018-06-09T09:10:40.096Z,98654.97
2018-06-09T09:13:10.202Z,98652.70
2018-06-09T09:15:41.199Z,98650.39
2018-06-09T09:18:10.553Z,98656.62
2018-06-09T09:20:40.233Z,98662.75
2018-06-09T09:23:10.531Z,98662.23
2018-06-09T09:25:39.857Z,98663.90
2018-06-09T09:28:09.406Z,98662.02
2018-06-09T09:30:38.735Z,98657.02
2018-06-09T09:33:09.245Z,98655.30
2018-06-09T09:35:39.148Z,98657.11
2018-06-09T09:38:08.481Z,98656.00
2018-06-09T09:40:38.174Z,98654.68
2018-06-09T09:43:08.256Z,98651.94
2018-06-09T09:45:39.045Z,98646.41
2018-06-09T09:48:08.362Z,98646.92
2018-06-09T09:50:37.737Z,98639.42
2018-06-09T09:53:07.070Z,98645.29
2018-06-09T09:55:36.428Z,98648.38
2018-06-09T09:58:06.049Z,98644.69
2018-06-09T10:00:37.555Z,98648.31
2018-06-09T10:03:07.330Z,98646.05
2018-06-09T10:05:37.361Z,98647.02
2018-06-09T10:08:06.994Z,98643.51
2018-06-09T10:10:36.378Z,98638.55
2018-06-09T10:13:06.035Z,98634.81
2018-06-09T10:15:35.377Z,98640.06
2018-06-09T10:18:04.790Z,98638.27
2018-06-09T10:20:35.843Z,98642.88
2018-06-09T10:23:06.261Z,98642.46
2018-06-09T10:25:35.984Z,98637.11
2018-06-09T10:28:05.662Z,98643.16
2018-06-09T10:30:35.007Z,98635.95
2018-06-09T10:33:05.542Z,98633.28
2018-06-09T10:35:34.902Z,98637.55
2018-06-09T10:38:07.055Z,98637.52
2018-06-09T10:40:38.568Z,98637.81
2018-06-09T10:43:07.984Z,98632.39
2018-06-09T10:45:38.112Z,98625.67
2018-06-09T10:48:08.454Z,98636.33
2018-06-09T10:50:38.361Z,98632.38
2018-06-09T10:53:07.689Z,98634.95
2018-06-09T10:55:37.028Z,98639.73
2018-06-09T10:58:06.865Z,98638.23
2018-06-09T11:00:36.230Z,98632.61
2018-06-09T11:03:07.558Z,98628.56
2018-06-09T11:05:36.933Z,98626.69
2018-06-09T11:08:06.257Z,98627.27
2018-06-09T11:10:35.630Z,98626.00
2018-06-09T11:13:05.020Z,98617.42
2018-06-09T11:15:35.419Z,98608.78
2018-06-09T11:18:05.386Z,98609.75
2018-06-09T11:20:35.077Z,98608.00
2018-06-09T11:23:04.461Z,98606.31
2018-06-09T11:25:35.134Z,98604.30
2018-06-09T11:28:04.901Z,98600.90
2018-06-09T11:30:34.250Z,98595.23
2018-06-09T11:33:03.618Z,98600.30
2018-06-09T11:35:32.954Z,98598.75
2018-06-09T11:38:03.555Z,98601.45
2018-06-09T11:40:32.956Z,98589.50
2018-06-09T11:43:02.283Z,98584.57
2018-06-09T11:45:32.561Z,98588.92
2018-06-09T11:48:02.406Z,98581.02
2018-06-09T11:50:31.769Z,98572.03
2018-06-09T11:53:01.085Z,98576.22
2018-06-09T11:55:31.188Z,98568.86
2018-06-09T11:58:00.505Z,98569.06
2018-06-09T12:00:30.214Z,98562.30
2018-06-09T12:02:59.552Z,98563.92
2018-06-09T12:05:28.960Z,98560.09
2018-06-09T12:07:59.094Z,98556.77
2018-06-09T12:10:29.479Z,98555.36
2018-06-09T12:12:59.694Z,98554.47
2018-06-09T12:15:29.037Z,98548.59
2018-06-09T12:17:58.473Z,98547.55
2018-06-09T12:20:27.870Z,98539.23
2018-06-09T12:22:57.677Z,98542.58
2018-06-09T12:25:27.043Z,98534.77
2018-06-09T12:27:56.776Z,98535.55
2018-06-09T12:30:26.368Z,98530.55
2018-06-09T12:32:56.039Z,98530.16
2018-06-09T12:35:25.479Z,98523.03
2018-06-09T12:37:55.189Z,98526.82
2018-06-09T12:40:25.355Z,98521.58
2018-06-09T12:42:54.650Z,98519.28
2018-06-09T12:45:23.980Z,98515.44
2018-06-09T12:47:54.590Z,98506.69
2018-06-09T12:50:24.883Z,98507.68
2018-06-09T12:52:54.188Z,98505.80
2018-06-09T12:55:23.845Z,98501.70
2018-06-09T12:57:53.816Z,98508.24
2018-06-09T13:00:23.541Z,98496.44
2018-06-09T13:02:52.848Z,98500.13
2018-06-09T13:05:22.226Z,98492.61
2018-06-09T13:07:52.232Z,98488.27
2018-06-09T13:10:21.572Z,98487.05
2018-06-09T13:12:50.908Z,98481.36
2018-06-09T13:15:20.247Z,98479.09
2018-06-09T13:17:49.566Z,98483.72
2018-06-09T13:20:18.891Z,98478.72
2018-06-09T13:22:48.428Z,98478.43
2018-06-09T13:25:17.750Z,98473.12
2018-06-09T13:27:47.361Z,98470.88
2018-06-09T13:30:16.714Z,98466.02
2018-06-09T13:32:46.263Z,98462.99
2018-06-09T13:35:15.633Z,98463.56
2018-06-09T13:37:44.958Z,98464.80
2018-06-09T13:40:14.336Z,98456.28
2018-06-09T13:42:44.324Z,98452.22
2018-06-09T13:45:14.401Z,98445.64
2018-06-09T13:47:44.064Z,98439.89
2018-06-09T13:50:13.417Z,98442.36
2018-06-09T13:52:42.849Z,98442.89
2018-06-09T13:55:12.880Z,98437.11
2018-06-09T13:57:42.216Z,98434.33
2018-06-09T14:00:11.874Z,98438.91
2018-06-09T14:02:41.557Z,98444.70
2018-06-09T14:05:11.149Z,98439.88
2018-06-09T14:07:41.209Z,98440.43
2018-06-09T14:10:10.639Z,98442.93
2018-06-09T14:12:40.608Z,98443.41
2018-06-09T14:15:10.197Z,98450.00
2018-06-09T14:17:39.539Z,98449.52
2018-06-09T14:20:08.851Z,98440.16
2018-06-09T14:22:38.217Z,98446.20
2018-06-09T14:25:07.781Z,98439.59
2018-06-09T14:27:37.108Z,98441.27
2018-06-09T14:30:06.477Z,98441.52
2018-06-09T14:32:35.849Z,98445.47
2018-06-09T14:35:05.188Z,98455.61
2018-06-09T14:37:34.762Z,98447.26
2018-06-09T14:40:04.467Z,98448.73
2018-06-09T14:42:33.784Z,98441.22
2018-06-09T14:45:03.508Z,98439.82
2018-06-09T14:47:33.192Z,98443.64
2018-06-09T14:50:02.996Z,98443.61
2018-06-09T14:52:32.325Z,98450.26
2018-06-09T14:55:01.697Z,98441.66
2018-06-09T14:57:31.379Z,98437.45
2018-06-09T15:00:02.400Z,98428.24
2018-06-09T15:02:31.814Z,98425.26
2018-06-09T15:05:01.813Z,98427.20
2018-06-09T15:07:31.171Z,98419.77
2018-06-09T15:10:00.909Z,98417.84
2018-06-09T15:12:30.244Z,98418.86
2018-06-09T15:14:59.556Z,98420.51
2018-06-09T15:17:28.979Z,98427.27
2018-06-09T15:19:58.279Z,98428.80
2018-06-09T15:22:27.604Z,98435.47
2018-06-09T15:24:56.909Z,98430.22
2018-06-09T15:27:26.366Z,98427.52
2018-06-09T15:29:55.676Z,98424.88
2018-06-09T15:32:25.986Z,98432.95
2018-06-09T15:34:55.653Z,98447.34
2018-06-09T15:37:24.990Z,98445.72
2018-06-09T15:39:54.321Z,98444.52
2018-06-09T15:42:23.672Z,98444.46
2018-06-09T15:44:53.287Z,98449.73
2018-06-09T15:47:22.804Z,98441.59
2018-06-09T15:49:52.350Z,98454.10
2018-06-09T15:52:22.083Z,98452.80
2018-06-09T15:54:51.390Z,98453.66
2018-06-09T15:57:21.037Z,98451.75
2018-06-09T15:59:50.579Z,98458.77
2018-06-09T16:02:20.220Z,98453.85
2018-06-09T16:04:49.959Z,98460.16
2018-06-09T16:07:19.558Z,98451.64
2018-06-09T16:09:48.910Z,98464.42
2018-06-09T16:12:18.611Z,98465.22
2018-06-09T16:14:48.345Z,98468.87
2018-06-09T16:17:18.113Z,98469.56
2018-06-09T16:19:47.436Z,98486.31
2018-06-09T16:22:16.789Z,98481.60
2018-06-09T16:24:47.076Z,98484.61
2018-06-09T16:27:16.844Z,98480.01
2018-06-09T16:29:46.173Z,98481.03
2018-06-09T16:32:15.509Z,98480.72
2018-06-09T16:34:45.535Z,98482.27
2018-06-09T16:37:14.852Z,98479.08
2018-06-09T16:39:44.200Z,98473.75
2018-06-09T16:42:13.673Z,98480.86
2018-06-09T16:44:43.256Z,98472.63
2018-06-09T16:47:12.784Z,98475.34
2018-06-09T16:49:42.620Z,98474.48
2018-06-09T16:52:11.977Z,98488.91
2018-06-09T16:54:42.217Z,98482.52
2018-06-09T16:57:11.576Z,98483.78
2018-06-09T16:59:40.910Z,98487.64
2018-06-09T17:02:10.629Z,98489.09
2018-06-09T17:04:40.789Z,98492.25
2018-06-09T17:07:10.154Z,98508.39
2018-06-09T17:09:40.502Z,98506.41
2018-06-09T17:12:10.198Z,98516.66
2018-06-09T17:14:40.509Z,98526.94
2018-06-09T17:17:10.752Z,98544.71
2018-06-09T17:19:40.353Z,98564.50
2018-06-09T17:22:09.731Z,98563.88
2018-06-09T17:24:39.082Z,98555.04
2018-06-09T17:27:08.449Z,98561.70
2018-06-09T17:29:38.761Z,98564.84
2018-06-09T17:32:08.093Z,98563.58
2018-06-09T17:34:37.530Z,98567.87
2018-06-09T17:37:06.863Z,98563.07
2018-06-09T17:39:36.197Z,98574.97
2018-06-09T17:42:05.572Z,98576.94
2018-06-09T17:44:34.930Z,98573.39
2018-06-09T17:47:04.389Z,98580.70
2018-06-09T17:49:35.417Z,98573.07
2018-06-09T17:52:05.073Z,98563.33
2018-06-09T17:54:34.843Z,98570.76
2018-06-09T17:57:04.241Z,98577.26
2018-06-09T17:59:33.548Z,98583.27
2018-06-09T18:02:03.061Z,98584.74
2018-06-09T18:04:32.386Z,98584.35
2018-06-09T18:07:01.820Z,98588.58
2018-06-09T18:09:31.123Z,98590.11
2018-06-09T18:12:00.508Z,98593.23
2018-06-09T18:14:30.244Z,98597.80
2018-06-09T18:16:59.908Z,98613.75
2018-06-09T18:19:29.707Z,98606.48
2018-06-09T18:21:58.972Z,98612.27
2018-06-09T18:24:28.784Z,98613.41
2018-06-09T18:26:58.422Z,98610.00
2018-06-09T18:29:28.431Z,98608.02
2018-06-09T18:31:58.699Z,98607.28
2018-06-09T18:34:28.033Z,98620.30
2018-06-09T18:36:57.386Z,98615.00
2018-06-09T18:39:26.952Z,98610.44
2018-06-09T18:41:56.588Z,98612.95
2018-06-09T18:44:26.478Z,98611.92
2018-06-09T18:46:56.603Z,98620.79
2018-06-09T18:49:25.933Z,98624.36
2018-06-09T18:51:55.248Z,98611.34
2018-06-09T18:54:25.041Z,98618.44
2018-06-09T18:56:54.697Z,98619.77
2018-06-09T18:59:24.020Z,98615.10
2018-06-09T19:01:53.747Z,98616.19
2018-06-09T19:04:23.772Z,98609.98
2018-06-09T19:06:53.225Z,98612.17
2018-06-09T19:09:23.016Z,98609.16
2018-06-09T19:11:52.616Z,98614.91
2018-06-09T19:14:21.941Z,98615.69
2018-06-09T19:16:51.357Z,98618.59
2018-06-09T19:19:21.648Z,98617.25
2018-06-09T19:21:51.074Z,98625.44
2018-06-09T19:24:20.402Z,98637.10
2018-06-09T19:26:49.741Z,98637.84
2018-06-09T19:29:20.093Z,98637.28
2018-06-09T19:31:49.435Z,98636.41
2018-06-09T19:34:19.082Z,98633.81
2018-06-09T19:36:48.729Z,98632.99
2018-06-09T19:39:18.933Z,98635.66
2018-06-09T19:41:49.107Z,98629.23
2018-06-09T19:44:18.451Z,98616.64
2018-06-09T19:46:47.800Z,98621.06
2018-06-09T19:49:17.116Z,98626.25
2018-06-09T19:51:48.244Z,98625.41
2018-06-09T19:54:17.601Z,98632.51
2018-06-09T19:56:47.080Z,98633.90
2018-06-09T19:59:17.064Z,98626.50
2018-06-09T20:01:46.396Z,98634.42
2018-06-09T20:04:15.787Z,98634.07
2018-06-09T20:06:45.496Z,98633.86
2018-06-09T20:09:14.841Z,98643.68
2018-06-09T20:11:44.293Z,98644.42
2018-06-09T20:14:14.006Z,98644.25
2018-06-09T20:16:43.351Z,98640.13
2018-06-09T20:19:12.752Z,98631.53
2018-06-09T20:21:42.133Z,98631.73
2018-06-09T20:24:12.110Z,98629.87
2018-06-09T20:26:41.424Z,98643.16
2018-06-09T20:29:10.873Z,98644.78
2018-06-09T20:31:40.626Z,98639.20
2018-06-09T20:34:09.962Z,98634.48
2018-06-09T20:36:39.732Z,98630.58
2018-06-09T20:39:09.076Z,98622.48
2018-06-09T20:41:38.384Z,98632.00
2018-06-09T20:44:07.761Z,98637.44
2018-06-09T20:46:37.132Z,98641.84
2018-06-09T20:49:06.479Z,98638.02
2018-06-09T20:51:36.111Z,98640.19
2018-06-09T20:54:06.224Z,98638.69
2018-06-09T20:56:35.558Z,98636.69
2018-06-09T20:59:04.901Z,98636.47
2018-06-09T21:01:34.236Z,98638.41
2018-06-09T21:04:03.590Z,98640.95
2018-06-09T21:06:32.878Z,98647.23
2018-06-09T21:09:02.537Z,98638.41
2018-06-09T21:11:32.009Z,98640.20
2018-06-09T21:14:01.821Z,98645.00
2018-06-09T21:18:59.223Z,98645.93
2018-06-09T21:21:28.847Z,98643.41
2018-06-09T21:23:58.196Z,98653.95
2018-06-09T21:26:33.122Z,98656.45
2018-06-09T21:29:06.605Z,98656.66
2018-06-09T21:31:40.062Z,98661.98
2018-06-09T21:34:25.736Z,98663.56
2018-06-09T21:36:57.511Z,98665.25
2018-06-09T21:39:32.932Z,98674.23
2018-06-09T21:42:07.866Z,98673.51
2018-06-09T21:44:37.543Z,98668.45
2018-06-09T21:47:06.866Z,98670.36
2018-06-09T21:49:36.214Z,98667.22
2018-06-09T21:52:05.616Z,98658.66
2018-06-09T21:54:35.174Z,98670.68
2018-06-09T21:57:04.517Z,98665.98
2018-06-09T21:59:34.196Z,98659.90
2018-06-09T22:02:03.567Z,98664.95
2018-06-09T22:04:32.917Z,98663.17
2018-06-09T22:07:02.232Z,98660.28
2018-06-09T22:09:31.581Z,98648.89
2018-06-09T22:12:00.905Z,98644.81
2018-06-09T22:14:30.575Z,98649.20
2018-06-09T22:17:00.478Z,98637.79
2018-06-09T22:19:29.807Z,98638.70
2018-06-09T22:21:59.522Z,98644.36
2018-06-09T22:24:29.099Z,98644.45
2018-06-09T22:26:58.745Z,98650.30
2018-06-09T22:29:29.124Z,98659.55
2018-06-09T22:31:58.483Z,98661.25
2018-06-09T22:34:27.839Z,98663.62
2018-06-09T22:36:57.204Z,98658.53
2018-06-09T22:39:26.538Z,98672.50
2018-06-09T22:41:56.264Z,98671.33
2018-06-09T22:44:25.971Z,98665.41
2018-06-09T22:46:55.329Z,98669.61
2018-06-09T22:49:24.697Z,98674.38
2018-06-09T22:51:55.427Z,98676.09
2018-06-09T22:54:24.761Z,98675.54
2018-06-09T22:56:54.101Z,98667.78
2018-06-09T22:59:23.798Z,98662.84
2018-06-09T23:01:53.153Z,98664.80
2018-06-09T23:04:22.925Z,98660.95
2018-06-09T23:06:52.230Z,98663.44
2018-06-09T23:09:21.858Z,98666.13
2018-06-09T23:11:51.213Z,98660.21
2018-06-09T23:14:21.801Z,98655.16
2018-06-09T23:16:51.137Z,98659.43
2018-06-09T23:19:20.551Z,98652.70
2018-06-09T23:21:49.875Z,98646.45
2018-06-09T23:24:19.476Z,98642.02
2018-06-09T23:26:49.201Z,98640.77
2018-06-09T23:29:18.656Z,98637.41
2018-06-09T23:31:48.043Z,98632.03
2018-06-09T23:34:17.602Z,98627.48
2018-06-09T23:36:47.208Z,98622.65
2018-06-09T23:39:16.795Z,98613.71
2018-06-09T23:41:46.509Z,98614.47
2018-06-09T23:44:16.142Z,98610.94
2018-06-09T23:46:45.483Z,98605.84
2018-06-09T23:49:14.802Z,98600.47
2018-06-09T23:51:44.170Z,98602.17
2018-06-09T23:54:13.755Z,98598.25
2018-06-09T23:56:43.146Z,98596.03
2018-06-09T23:59:12.486Z,98602.33
